Latest Weather Observations for Kununurra Airport

IDW60801

Issued at 4:03 pm WST Sunday 4 December 2016 (issued every 30 minutes, with the page automatically refreshed every 10 minutes)

About weather observations | Map of weather stations | Latest weather observations for WA | Other Formats
Station Details ID: 002056 Name: KUNUNURRA AERO Lat: -15.78 Lon: 128.71 Height: 44.0 m
Data from the previous 72 hours. | See also: Recent months at Kununurra Airport
Date/Time
WST
Temp
°C
App
Temp
°C
Dew
Point
°C
Rel
Hum
%
Delta-T
°C
Wind Press
QNH
hPa
Press
MSL
hPa
Rain since
9am
mm
Dir  Spd
km/h
Gust
km/h
Spd
kts
Gust
kts
04/04:00pm 33.9 34.2 20.3 45 9.1 SW 19 26 10 14 1006.7 1006.4 0.0
04/03:30pm 34.4 33.6 20.0 42 9.6 SW 24 33 13 18 1006.4 1006.0 0.0
04/03:00pm 35.8 37.3 20.5 41 10.3 NNW 13 17 7 9 1006.5 1006.1 0.0
04/02:30pm 36.0 36.8 18.1 34 11.7 NNW 11 13 6 7 1006.7 1006.4 0.0
04/02:00pm 35.1 33.1 14.9 29 12.6 N 19 32 10 17 1006.9 1006.6 0.0
04/01:30pm 32.3 28.2 19.2 46 8.6 N 39 52 21 28 1007.3 1007.0 0.0
04/01:18pm 35.6 33.8 19.5 38 10.7 NNE 28 54 15 29 1007.3 1007.0 0.0
04/01:00pm 38.7 39.2 20.0 33 12.6 N 17 28 9 15 1007.2 1006.9 0.0
04/12:30pm 36.5 37.3 20.7 39 10.7 NNE 17 30 9 16 1007.9 1007.6 0.0
04/12:00pm 37.2 39.1 21.3 39 10.9 NNE 13 20 7 11 1008.6 1008.3 0.0
04/11:30am 36.7 37.6 20.9 39 10.7 N 17 26 9 14 1009.0 1008.7 0.0
04/11:00am 35.6 37.0 21.1 43 9.8 N 15 24 8 13 1009.5 1009.2 0.0
04/10:30am 35.6 37.0 21.8 44 9.4 NNE 17 26 9 14 1009.7 1009.4 0.0
04/10:00am 35.4 36.3 21.6 44 9.4 NE 19 26 10 14 1010.2 1009.9 0.0
04/09:30am 34.2 36.6 22.3 50 8.2 NE 13 17 7 9 1010.2 1009.9 0.0
04/09:00am 33.7 37.8 24.0 57 6.8 NNE 9 13 5 7 1010.5 1010.2 0.0
04/08:30am 32.1 36.2 23.9 62 5.7 N 9 15 5 8 1010.7 1010.4 0.0
04/08:00am 32.5 37.3 24.5 62 5.6 NNE 7 11 4 6 1010.9 1010.6 0.0
04/07:30am 31.3 36.2 24.7 68 4.6 NW 7 13 4 7 1010.9 1010.6 0.0
04/07:00am 31.0 36.1 24.9 70 4.3 SSE 7 9 4 5 1010.8 1010.5 0.0
04/06:30am 29.8 35.5 24.4 73 3.8 NNW 2 7 1 4 1010.8 1010.5 0.0
04/06:00am 28.6 34.7 24.4 78 2.9 CALM 0 0 0 0 1010.6 1010.3 0.0
04/05:30am 28.0 34.2 24.6 82 2.4 CALM 0 0 0 0 1010.4 1010.1 0.0
04/05:00am 26.2 31.9 23.7 86 1.7 CALM 0 0 0 0 1010.1 1009.8 0.0
04/04:30am 26.1 32.0 24.1 89 1.4 CALM 0 0 0 0 1009.8 1009.5 0.0
04/04:00am 26.5 32.5 24.3 88 1.5 CALM 0 0 0 0 1009.7 1009.4 0.0
04/03:30am 26.1 31.8 23.8 87 1.6 CALM 0 0 0 0 1009.5 1009.2 0.0
04/03:00am 26.4 32.3 24.1 87 1.6 CALM 0 0 0 0 1009.3 1009.0 0.0
04/02:30am 26.5 32.1 23.6 84 2.0 CALM 0 0 0 0 1009.1 1008.8 0.0
04/02:00am 27.0 33.0 24.3 85 1.9 CALM 0 2 0 1 1009.0 1008.7 0.0
04/01:30am 27.0 31.6 24.1 84 2.0 NE 7 9 4 5 1009.1 1008.8 0.0
04/01:00am 27.2 31.4 24.1 83 2.1 N 9 9 5 5 1009.1 1008.8 0.0
04/12:30am 27.1 31.7 24.2 84 2.0 NNE 7 11 4 6 1009.3 1009.0 0.0
04/12:00am 27.0 31.5 23.9 83 2.1 NNE 7 9 4 5 1009.6 1009.3 0.0
 
Date/Time
WST
Temp
°C
App
Temp
°C
Dew
Point
°C
Rel
Hum
%
Delta-T
°C
Wind Press
QNH
hPa
Press
MSL
hPa
Rain since
9am
mm
Dir  Spd
km/h
Gust
km/h
Spd
kts
Gust
kts
03/11:30pm 27.3 32.0 24.0 82 2.3 NNE 6 7 3 4 1010.1 1009.8 0.0
03/11:00pm 27.4 31.4 23.8 81 2.5 NE 9 13 5 7 1010.7 1010.4 0.0
03/10:30pm 27.7 31.8 23.9 80 2.6 N 9 13 5 7 1010.8 1010.5 0.0
03/10:00pm 28.0 31.5 23.6 77 3.0 N 11 11 6 6 1010.9 1010.6 0.0
03/09:30pm 28.2 32.1 23.6 76 3.2 N 9 11 5 6 1011.4 1011.1 0.0
03/09:00pm 28.6 32.2 23.1 72 3.8 N 9 11 5 6 1011.3 1011.0 0.0
03/08:30pm 29.2 31.7 23.2 70 4.1 N 15 19 8 10 1010.9 1010.6 0.0
03/08:00pm 29.7 32.2 23.2 68 4.5 NNE 15 19 8 10 1010.8 1010.5 0.0
03/07:30pm 30.3 32.0 23.0 65 5.0 NNE 19 24 10 13 1010.6 1010.3 0.0
03/07:00pm 30.5 32.8 23.4 66 4.9 N 17 20 9 11 1010.4 1010.1 0.0
03/06:30pm 31.0 33.4 22.9 62 5.6 N 15 20 8 11 1010.0 1009.7 0.0
03/06:00pm 31.3 33.6 22.0 57 6.3 N 13 17 7 9 1009.4 1009.1 0.0
03/05:30pm 32.1 34.1 21.6 53 7.1 N 13 19 7 10 1008.7 1008.4 0.0
03/05:00pm 33.0 35.1 20.9 49 8.1 N 11 15 6 8 1008.2 1007.9 0.0
03/04:30pm 34.2 35.3 21.3 47 8.7 N 17 26 9 14 1007.7 1007.4 0.0
03/04:00pm 34.8 35.3 21.1 44 9.3 NNE 20 30 11 16 1007.4 1007.1 0.0
03/03:30pm 35.0 36.9 22.0 46 8.9 N 15 24 8 13 1007.4 1007.1 0.0
03/03:00pm 34.4 35.8 21.1 45 9.0 N 15 22 8 12 1007.2 1006.9 0.0
03/02:30pm 34.5 35.6 21.2 46 9.0 N 17 26 9 14 1007.5 1007.2 0.0
03/02:00pm 34.8 36.4 21.5 46 9.1 N 15 24 8 13 1007.9 1007.6 0.0
03/01:30pm 34.7 35.7 21.0 44 9.3 NNE 17 24 9 13 1008.4 1008.1 0.0
03/01:00pm 34.2 35.9 20.9 45 9.0 NNE 13 22 7 12 1008.8 1008.5 0.0
03/12:30pm 33.3 35.0 20.1 45 8.8 N 11 20 6 11 1009.0 1008.7 0.0
03/12:00pm 33.1 35.8 21.3 50 8.0 NNE 9 13 5 7 1009.7 1009.4 0.0
03/11:30am 32.2 34.6 20.8 51 7.6 NNE 9 17 5 9 1010.0 1009.7 0.0
03/11:00am 31.4 33.7 21.3 55 6.8 ENE 11 17 6 9 1010.5 1010.2 0.0
03/10:30am 29.9 33.0 22.9 66 4.8 N 11 17 6 9 1011.0 1010.7 0.0
03/10:00am 28.3 31.2 22.5 71 3.9 NNE 11 17 6 9 1011.5 1011.2 0.0
03/09:30am 27.3 30.6 22.5 75 3.2 NNE 9 13 5 7 1011.7 1011.4 0.0
03/09:00am 26.0 29.9 22.9 83 2.1 N 7 13 4 7 1012.2 1011.9 1.4
03/08:30am 25.1 28.9 22.8 87 1.6 E 7 13 4 7 1012.2 1011.9 1.4
03/08:00am 24.1 27.4 22.5 91 1.1 NNE 9 11 5 6 1012.2 1011.9 1.4
03/07:30am 23.6 25.6 22.9 96 0.5 N 17 24 9 13 1012.4 1012.1 1.4
03/07:13am 23.4 23.9 22.7 96 0.5 NNW 24 32 13 17 1012.4 1012.1 1.4
03/07:00am 23.4 24.7 22.7 96 0.5 NNW 20 28 11 15 1012.9 1012.6 1.4
03/06:47am 23.7 25.6 22.1 91 1.1 NNE 15 24 8 13 1013.6 1013.3 0.2
03/06:30am 25.1 24.1 21.2 79 2.6 ENE 28 39 15 21 1013.2 1012.9 0.0
03/06:11am 25.0 22.9 21.7 82 2.2 ENE 35 54 19 29 1012.6 1012.3 0.0
03/06:00am 25.6 22.3 21.5 78 2.7 ENE 41 50 22 27 1012.3 1012.0 0.0
03/05:45am 25.7 22.3 20.7 74 3.3 NE 39 57 21 31 1012.0 1011.7 0.0
03/05:30am 27.3 28.6 22.7 76 3.1 NE 20 54 11 29 1011.2 1010.9 0.0
03/05:00am 27.2 30.9 25.2 89 1.4 NNE 15 15 8 8 1009.5 1009.2 0.0
03/04:30am 26.6 31.2 24.8 90 1.3 ENE 9 9 5 5 1008.9 1008.6 0.0
03/04:00am 26.9 32.9 24.2 85 1.9 CALM 0 0 0 0 1008.2 1007.9 0.0
03/03:30am 27.0 32.2 24.8 88 1.5 NNW 6 7 3 4 1008.1 1007.8 0.0
03/03:00am 27.6 33.5 25.4 88 1.5 N 4 6 2 3 1008.2 1007.9 0.0
03/02:30am 27.5 33.3 25.1 87 1.7 NNW 4 6 2 3 1008.2 1007.9 0.0
03/02:00am 27.8 33.2 25.2 86 1.8 NNW 6 7 3 4 1008.3 1008.0 0.0
03/01:30am 27.5 33.8 24.7 85 2.0 CALM 0 0 0 0 1008.3 1008.0 0.0
03/01:00am 27.7 33.5 24.5 83 2.2 N 2 6 1 3 1008.4 1008.1 0.0
03/12:30am 27.7 32.8 24.7 84 2.1 NNW 6 7 3 4 1008.2 1007.9 0.0
03/12:00am 28.0 33.0 24.8 83 2.2 NNE 7 9 4 5 1008.2 1007.9 0.0
 
Date/Time
WST
Temp
°C
App
Temp
°C
Dew
Point
°C
Rel
Hum
%
Delta-T
°C
Wind Press
QNH
hPa
Press
MSL
hPa
Rain since
9am
mm
Dir  Spd
km/h
Gust
km/h
Spd
kts
Gust
kts
02/11:30pm 27.8 32.1 24.2 81 2.5 NNE 9 11 5 6 1008.3 1008.0 0.0
02/11:00pm 28.1 32.4 23.7 77 3.0 NNW 7 9 4 5 1008.8 1008.5 0.0
02/10:30pm 28.3 32.0 23.2 74 3.5 N 9 11 5 6 1008.9 1008.6 0.0
02/10:00pm 28.4 31.6 22.4 70 4.1 NE 9 11 5 6 1009.1 1008.8 0.0
02/09:30pm 28.3 30.8 21.1 65 4.8 NE 9 11 5 6 1008.9 1008.6 0.0
02/09:00pm 28.1 30.9 20.9 65 4.8 NNE 7 9 4 5 1009.0 1008.7 0.0
02/08:30pm 28.2 30.3 21.0 65 4.8 N 11 13 6 7 1008.9 1008.6 0.0
02/08:00pm 28.7 30.8 21.0 63 5.1 NNW 11 13 6 7 1008.6 1008.3 0.0
02/07:30pm 28.3 30.3 20.8 63 5.0 N 11 13 6 7 1008.0 1007.7 0.0
02/07:00pm 28.8 30.1 20.8 62 5.3 N 15 19 8 10 1007.7 1007.4 0.0
02/06:30pm 30.1 29.3 19.2 52 7.1 N 22 35 12 19 1007.3 1007.0 0.0
02/06:00pm 31.2 30.8 17.1 42 9.0 NE 15 22 8 12 1006.3 1005.9 0.0
02/05:30pm 31.8 29.4 20.4 51 7.6 ENE 33 44 18 24 1006.4 1006.0 0.0
02/05:27pm 31.7 28.5 20.3 50 7.6 ENE 37 54 20 29 1006.3 1005.9 0.0
02/05:15pm 34.0 33.1 22.1 50 8.1 NE 30 50 16 27 1005.7 1005.3 0.0
02/05:00pm 35.5 36.9 21.0 42 9.8 NNE 15 19 8 10 1005.2 1004.8 0.0
02/04:30pm 36.7 37.8 19.6 36 11.4 N 13 17 7 9 1004.5 1004.1 0.0
02/04:00pm 36.5 37.1 20.3 38 10.9 N 17 22 9 12 1004.7 1004.3 0.0
02/03:30pm 38.0 38.3 20.3 35 12.0 N 19 24 10 13 1005.1 1004.7 0.0
02/03:00pm 38.4 38.6 19.3 33 12.8 N 17 24 9 13 1005.2 1004.8 0.0
02/02:30pm 39.0 39.2 19.3 31 13.2 NNE 17 32 9 17 1005.5 1005.1 0.0
02/02:00pm 39.3 39.6 19.5 31 13.3 NNE 17 28 9 15 1005.7 1005.3 0.0
02/01:30pm 40.1 40.9 20.7 32 13.2 NNE 17 26 9 14 1005.9 1005.5 0.0
02/01:00pm 38.0 39.7 21.6 38 11.3 NNE 15 24 8 13 1006.3 1005.9 0.0
02/12:30pm 36.1 38.3 21.9 43 9.7 N 13 24 7 13 1006.9 1006.6 0.0
02/12:00pm 36.0 38.5 22.5 45 9.3 N 13 20 7 11 1007.5 1007.2 0.0
02/11:30am 35.9 37.6 21.7 43 9.7 N 15 26 8 14 1008.2 1007.9 0.0
02/11:00am 35.4 36.9 21.3 44 9.6 N 15 26 8 14 1008.6 1008.3 0.0
02/10:30am 35.0 37.6 23.3 50 8.1 N 15 28 8 15 1009.1 1008.8 0.0
02/10:00am 34.4 36.9 22.5 50 8.2 NNE 13 26 7 14 1009.6 1009.3 0.0
02/09:30am 32.9 35.5 22.0 52 7.4 N 11 20 6 11 1009.9 1009.6 0.0
02/09:00am 32.2 34.7 21.7 54 7.1 NNE 11 19 6 10 1010.1 1009.8 0.4
02/08:30am 31.3 33.9 21.2 55 6.8 ENE 9 17 5 9 1010.1 1009.8 0.4
02/08:00am 30.7 33.8 21.5 58 6.2 NNW 7 11 4 6 1010.1 1009.8 0.4
02/07:30am 29.8 32.6 21.5 61 5.6 NE 9 13 5 7 1010.2 1009.9 0.4
02/07:00am 29.0 32.3 21.5 64 5.0 ESE 6 13 3 7 1009.8 1009.5 0.4
02/06:30am 27.7 30.8 21.5 69 4.1 E 7 11 4 6 1009.7 1009.4 0.4
02/06:00am 26.8 28.3 22.0 75 3.2 NE 17 20 9 11 1009.7 1009.4 0.4
02/05:30am 26.0 29.9 22.5 81 2.4 NNE 6 7 3 4 1009.6 1009.3 0.4
02/05:00am 25.7 28.9 22.4 82 2.2 NNE 9 13 5 7 1009.4 1009.1 0.4
02/04:30am 26.2 28.1 22.1 78 2.8 WNW 15 20 8 11 1009.4 1009.1 0.4
02/04:00am 26.1 28.9 23.0 83 2.1 WNW 13 15 7 8 1009.3 1009.0 0.4
02/03:30am 25.9 28.4 23.2 85 1.8 W 15 22 8 12 1008.6 1008.3 0.4
02/03:00am 26.1 30.2 23.0 83 2.1 N 6 9 3 5 1008.1 1007.8 0.4
02/02:30am 25.9 29.4 22.8 83 2.1 NNW 9 17 5 9 1007.9 1007.6 0.4
02/02:00am 26.3 29.6 21.9 77 3.0 W 7 11 4 6 1008.0 1007.7 0.4
02/01:30am 26.4 29.6 21.6 75 3.2 W 7 11 4 6 1008.3 1008.0 0.4
02/01:00am 26.7 28.7 21.5 73 3.5 SE 13 17 7 9 1008.2 1007.9 0.4
02/12:30am 26.6 29.0 22.2 77 3.0 ESE 13 20 7 11 1008.3 1008.0 0.4
02/12:00am 26.6 28.6 22.2 77 3.0 NE 15 19 8 10 1008.2 1007.9 0.4
 
Date/Time
WST
Temp
°C
App
Temp
°C
Dew
Point
°C
Rel
Hum
%
Delta-T
°C
Wind Press
QNH
hPa
Press
MSL
hPa
Rain since
9am
mm
Dir  Spd
km/h
Gust
km/h
Spd
kts
Gust
kts
01/11:30pm 27.1 27.5 21.8 73 3.6 NE 22 30 12 16 1009.0 1008.7 0.4
01/11:00pm 28.2 27.8 21.7 68 4.4 ENE 26 35 14 19 1009.7 1009.4 0.4
01/10:30pm 29.7 30.7 22.9 67 4.7 NNE 22 48 12 26 1009.1 1008.8 0.4
01/10:29pm 29.9 31.5 23.3 67 4.5 NNE 20 48 11 26 1009.2 1008.9 0.4
01/10:00pm 30.8 34.7 25.4 73 3.8 ENE 15 20 8 11 1009.0 1008.7 0.4
01/09:30pm 28.8 32.1 23.2 71 3.8 ENE 11 13 6 7 1008.9 1008.6 0.4
01/09:00pm 28.4 31.9 22.2 69 4.2 N 7 11 4 6 1007.9 1007.6 0.4
01/08:30pm 28.7 31.1 21.5 65 4.8 N 11 13 6 7 1007.1 1006.8 0.4
01/08:00pm 30.1 31.6 20.6 56 6.3 ENE 13 20 7 11 1007.0 1006.7 0.4
01/07:30pm 30.4 30.8 20.9 57 6.3 E 20 28 11 15 1006.7 1006.4 0.4
01/07:00pm 28.7 30.8 21.0 63 5.1 N 11 13 6 7 1005.7 1005.3 0.4
01/06:30pm 30.8 32.2 19.5 51 7.4 ESE 11 15 6 8 1004.8 1004.4 0.4
01/06:00pm 30.7 33.3 21.2 57 6.4 SE 9 19 5 10 1003.8 1003.4 0.4
01/05:30pm 32.3 35.4 19.5 46 8.4 NE 2 7 1 4 1003.2 1002.8 0.4
01/05:00pm 32.5 34.2 19.4 46 8.6 NW 9 13 5 7 1003.2 1002.8 0.4
01/04:30pm 32.9 32.2 18.7 43 9.3 N 20 28 11 15 1003.6 1003.2 0.2

Other Formats:

Comma delimited format used in spreadsheet applications
http://www.bom.gov.au/fwo/IDW60801/IDW60801.94216.axf

JavaScript Object Notation format (JSON) in row-major order
http://www.bom.gov.au/fwo/IDW60801/IDW60801.94216.json